Time;durP1;ratioP1;P1;durP2;ratioP2;P2;SDS_P1;SDS_P2;PMS_P1;PMS_P2;Temp;Humidity;BMP_temperature;BMP_pressure;BME280_temperature;BME280_humidity;BME280_pressure;Samples;Min_cycle;Max_cycle;Signal;HPM_P1;HPM_P2
2021/09/07 00:01:20;;;;;;;7.47;5.13;;;;;;;;;;5113746;28;20038;-78
2021/09/07 00:03:46;;;;;;;6.57;5.93;;;;;;;;;;5113929;28;20027;-79
2021/09/07 00:06:14;;;;;;;4.70;4.18;;;;;;;;;;5113949;28;20020;-79
2021/09/07 00:08:39;;;;;;;6.35;4.68;;;;;;;;;;5113692;28;20098;-79
2021/09/07 00:11:05;;;;;;;7.05;4.97;;;;;;;;;;5112288;28;20063;-78
2021/09/07 00:13:31;;;;;;;5.15;4.65;;;;;;;;;;5113718;28;20032;-78
2021/09/07 00:15:57;;;;;;;7.43;4.78;;;;;;;;;;5117540;28;20475;-78
2021/09/07 00:18:23;;;;;;;5.70;4.05;;;;;;;;;;5117586;28;20118;-78
2021/09/07 00:20:48;;;;;;;5.57;2.78;;;;;;;;;;5117658;28;20027;-78
2021/09/07 00:23:14;;;;;;;3.88;2.58;;;;;;;;;;5117695;28;20118;-78
2021/09/07 00:25:40;;;;;;;4.25;2.45;;;;;;;;;;5117729;28;20049;-78
2021/09/07 00:28:05;;;;;;;5.35;4.70;;;;;;;;;;5117763;28;20379;-79
2021/09/07 00:30:31;;;;;;;5.75;5.13;;;;;;;;;;5117583;28;20091;-78
2021/09/07 00:32:57;;;;;;;5.25;4.15;;;;;;;;;;5117419;28;20387;-78
2021/09/07 00:35:24;;;;;;;5.43;4.53;;;;;;;;;;5117667;28;20393;-79
2021/09/07 00:37:50;;;;;;;4.80;4.30;;;;;;;;;;5117291;28;20024;-78
2021/09/07 00:40:16;;;;;;;4.10;3.70;;;;;;;;;;5117292;28;20314;-78
2021/09/07 00:42:42;;;;;;;4.87;4.37;;;;;;;;;;5115965;28;20028;-79
2021/09/07 00:45:12;;;;;;;4.57;2.80;;;;;;;;;;5117489;28;20050;-78
2021/09/07 00:47:38;;;;;;;5.82;5.32;;;;;;;;;;5117048;28;20023;-78
2021/09/07 00:50:04;;;;;;;4.10;2.42;;;;;;;;;;5117058;28;20475;-78
2021/09/07 00:52:30;;;;;;;4.93;4.50;;;;;;;;;;5115729;28;20024;-78
2021/09/07 00:54:56;;;;;;;5.70;4.80;;;;;;;;;;5116972;28;20030;-78
2021/09/07 00:57:27;;;;;;;7.28;6.68;;;;;;;;;;5116908;28;20482;-78
2021/09/07 00:59:53;;;;;;;4.43;3.97;;;;;;;;;;5117425;28;20375;-78
2021/09/07 01:02:19;;;;;;;8.00;4.90;;;;;;;;;;5116897;28;20024;-78
2021/09/07 01:04:45;;;;;;;4.32;2.25;;;;;;;;;;5116727;28;20012;-78
2021/09/07 01:07:11;;;;;;;4.85;4.43;;;;;;;;;;5116765;28;20024;-77
2021/09/07 01:09:39;;;;;;;3.63;2.47;;;;;;;;;;5116632;28;20031;-78
2021/09/07 01:12:08;;;;;;;5.65;5.15;;;;;;;;;;5116684;28;20047;-78
2021/09/07 01:14:37;;;;;;;6.45;5.03;;;;;;;;;;5116601;28;20031;-78
2021/09/07 01:17:09;;;;;;;5.18;4.70;;;;;;;;;;5116314;28;20020;-78
2021/09/07 01:19:35;;;;;;;6.65;4.82;;;;;;;;;;5116782;28;20038;-78
2021/09/07 01:22:01;;;;;;;5.28;4.85;;;;;;;;;;5116458;28;20023;-77
2021/09/07 01:24:27;;;;;;;3.63;1.42;;;;;;;;;;5116527;28;20161;-78
2021/09/07 01:26:54;;;;;;;5.43;4.47;;;;;;;;;;5115255;28;20054;-78
2021/09/07 01:29:21;;;;;;;4.90;2.00;;;;;;;;;;5116385;28;20027;-78
2021/09/07 01:31:46;;;;;;;5.32;4.95;;;;;;;;;;5115234;28;20060;-78
2021/09/07 01:34:21;;;;;;;4.18;1.35;;;;;;;;;;5116234;28;20019;-77
2021/09/07 01:36:46;;;;;;;5.40;4.90;;;;;;;;;;5116105;28;20375;-78
2021/09/07 01:39:13;;;;;;;5.38;4.90;;;;;;;;;;5116121;28;20030;-78
2021/09/07 01:41:39;;;;;;;5.78;4.63;;;;;;;;;;5116166;28;20098;-78
2021/09/07 01:44:04;;;;;;;2.92;1.08;;;;;;;;;;5116332;28;20051;-77
2021/09/07 01:46:30;;;;;;;4.25;2.70;;;;;;;;;;5116007;28;20047;-77
2021/09/07 01:48:56;;;;;;;6.32;5.80;;;;;;;;;;5115797;28;20030;-78
2021/09/07 01:51:21;;;;;;;3.03;0.93;;;;;;;;;;5115869;28;20035;-77
2021/09/07 01:53:47;;;;;;;3.50;1.88;;;;;;;;;;5114538;28;20106;-78
2021/09/07 01:56:13;;;;;;;3.95;1.20;;;;;;;;;;5115746;28;20023;-78
2021/09/07 01:58:38;;;;;;;4.05;2.53;;;;;;;;;;5116208;27;20023;-77
2021/09/07 02:01:04;;;;;;;4.93;4.47;;;;;;;;;;5115639;28;20072;-78
2021/09/07 02:03:29;;;;;;;3.70;2.38;;;;;;;;;;5115682;28;20085;-77
2021/09/07 02:05:55;;;;;;;5.32;4.93;;;;;;;;;;5115608;28;20024;-77
2021/09/07 02:08:21;;;;;;;5.07;2.78;;;;;;;;;;5115524;27;20118;-76
2021/09/07 02:10:46;;;;;;;3.35;2.33;;;;;;;;;;5115415;28;20024;-77
2021/09/07 02:13:12;;;;;;;3.38;2.40;;;;;;;;;;5115411;28;20026;-77
2021/09/07 02:15:37;;;;;;;5.90;5.40;;;;;;;;;;5115708;28;20065;-77
2021/09/07 02:18:03;;;;;;;5.93;4.60;;;;;;;;;;5114256;28;20040;-77
2021/09/07 02:20:29;;;;;;;3.97;3.17;;;;;;;;;;5115546;28;20368;-77
2021/09/07 02:22:54;;;;;;;8.38;4.55;;;;;;;;;;5115295;28;20019;-77
2021/09/07 02:25:20;;;;;;;7.13;5.72;;;;;;;;;;5115106;28;20031;-77
2021/09/07 02:27:46;;;;;;;4.40;1.35;;;;;;;;;;5115180;28;20023;-77
2021/09/07 02:30:12;;;;;;;4.10;2.38;;;;;;;;;;5114003;28;20031;-78
2021/09/07 02:32:38;;;;;;;6.30;2.55;;;;;;;;;;5115154;28;20027;-77
2021/09/07 02:35:05;;;;;;;3.33;2.40;;;;;;;;;;5115100;28;20024;-77
2021/09/07 02:37:31;;;;;;;10.20;4.38;;;;;;;;;;5114743;28;20107;-77
2021/09/07 02:39:56;;;;;;;6.68;2.58;;;;;;;;;;5114954;28;20182;-77
2021/09/07 02:42:22;;;;;;;3.38;1.85;;;;;;;;;;5114971;28;20028;-77
2021/09/07 02:44:48;;;;;;;3.63;1.95;;;;;;;;;;5114784;28;20015;-77
2021/09/07 02:47:14;;;;;;;2.47;0.98;;;;;;;;;;5114886;28;20020;-77
2021/09/07 02:49:40;;;;;;;4.63;2.30;;;;;;;;;;5114759;28;20520;-77
2021/09/07 02:52:06;;;;;;;3.58;2.15;;;;;;;;;;5114706;28;20028;-77
2021/09/07 02:54:31;;;;;;;3.45;2.28;;;;;;;;;;5114670;28;20033;-77
2021/09/07 02:56:57;;;;;;;5.93;2.40;;;;;;;;;;5114584;28;20024;-77
2021/09/07 02:59:23;;;;;;;4.85;4.45;;;;;;;;;;5114739;28;20432;-77
2021/09/07 03:01:48;;;;;;;25.60;3.35;;;;;;;;;;5114642;28;20470;-78
2021/09/07 03:04:14;;;;;;;64.25;8.75;;;;;;;;;;5114468;28;20030;-77
2021/09/07 03:06:40;;;;;;;4.72;1.63;;;;;;;;;;5114716;28;20027;-77
2021/09/07 03:09:06;;;;;;;9.75;3.63;;;;;;;;;;5114331;28;20073;-77
2021/09/07 03:11:32;;;;;;;6.15;4.43;;;;;;;;;;5114364;28;20077;-77
2021/09/07 03:13:57;;;;;;;5.28;3.17;;;;;;;;;;5114614;28;20421;-77
2021/09/07 03:16:23;;;;;;;6.32;2.17;;;;;;;;;;5114340;28;20036;-76
2021/09/07 03:18:50;;;;;;;5.13;4.63;;;;;;;;;;5112834;28;20073;-77
2021/09/07 03:21:15;;;;;;;6.43;2.28;;;;;;;;;;5114479;28;20028;-79
2021/09/07 03:23:41;;;;;;;4.07;2.45;;;;;;;;;;5114375;28;20030;-78
2021/09/07 03:26:08;;;;;;;7.82;1.75;;;;;;;;;;5116268;28;20034;-78
2021/09/07 03:28:34;;;;;;;4.22;2.20;;;;;;;;;;5132116;28;20038;-77
2021/09/07 03:31:00;;;;;;;3.28;1.88;;;;;;;;;;5135181;28;20351;-77
2021/09/07 03:33:25;;;;;;;7.68;3.10;;;;;;;;;;5116324;28;20460;-77
2021/09/07 03:35:51;;;;;;;6.93;4.40;;;;;;;;;;5115166;28;20023;-76
2021/09/07 03:38:17;;;;;;;5.93;2.05;;;;;;;;;;5114288;28;20402;-77
2021/09/07 03:40:42;;;;;;;6.05;2.40;;;;;;;;;;5114141;28;20030;-78
2021/09/07 03:43:08;;;;;;;4.30;2.25;;;;;;;;;;5113979;28;20019;-78
2021/09/07 03:45:34;;;;;;;6.53;5.00;;;;;;;;;;5114103;28;20024;-77
2021/09/07 03:47:59;;;;;;;4.95;4.45;;;;;;;;;;5114031;28;20096;-78
2021/09/07 03:50:25;;;;;;;6.20;2.38;;;;;;;;;;5117021;28;20091;-78
2021/09/07 03:52:50;;;;;;;6.65;2.35;;;;;;;;;;5117004;28;20497;-78
2021/09/07 03:55:16;;;;;;;4.20;2.22;;;;;;;;;;5118236;28;20070;-78
2021/09/07 03:57:42;;;;;;;9.27;4.78;;;;;;;;;;5116872;28;20028;-77
2021/09/07 04:00:08;;;;;;;6.13;2.63;;;;;;;;;;5118117;28;20027;-77
2021/09/07 04:02:34;;;;;;;4.00;1.73;;;;;;;;;;5118106;28;20028;-78
2021/09/07 04:04:59;;;;;;;5.80;0.93;;;;;;;;;;5117831;28;20024;-78
2021/09/07 04:07:25;;;;;;;5.50;0.98;;;;;;;;;;5118105;28;20023;-78
2021/09/07 04:09:50;;;;;;;4.72;2.17;;;;;;;;;;5117884;27;20110;-78
2021/09/07 04:12:16;;;;;;;7.03;3.38;;;;;;;;;;5117675;28;20026;-78
2021/09/07 04:14:42;;;;;;;5.90;5.35;;;;;;;;;;5117814;28;20387;-78
2021/09/07 04:17:09;;;;;;;7.63;2.15;;;;;;;;;;5117579;28;20043;-78
2021/09/07 04:19:35;;;;;;;6.85;2.65;;;;;;;;;;5117914;28;20055;-77
2021/09/07 04:22:01;;;;;;;7.30;5.60;;;;;;;;;;5117837;28;20384;-78
2021/09/07 04:24:26;;;;;;;6.60;2.63;;;;;;;;;;5117535;28;20038;-78
2021/09/07 04:26:53;;;;;;;6.93;1.42;;;;;;;;;;5117472;28;20038;-77
2021/09/07 04:29:22;;;;;;;6.75;1.08;;;;;;;;;;5117315;28;20492;-77
2021/09/07 04:31:48;;;;;;;4.60;4.18;;;;;;;;;;5117514;28;20027;-78
2021/09/07 04:34:14;;;;;;;3.70;2.28;;;;;;;;;;5117349;28;20422;-77
2021/09/07 04:36:39;;;;;;;4.55;4.13;;;;;;;;;;5117228;28;20023;-78
2021/09/07 04:39:05;;;;;;;6.43;4.45;;;;;;;;;;5117514;28;20072;-78
2021/09/07 04:41:31;;;;;;;7.55;5.38;;;;;;;;;;5117293;28;20073;-78
2021/09/07 04:43:57;;;;;;;3.55;2.17;;;;;;;;;;5117163;28;20024;-79
2021/09/07 04:46:23;;;;;;;5.07;4.63;;;;;;;;;;5117339;28;20532;-76
2021/09/07 04:48:54;;;;;;;6.68;2.17;;;;;;;;;;5117010;28;20031;-79
2021/09/07 04:51:23;;;;;;;4.13;3.42;;;;;;;;;;5117395;28;20069;-77
2021/09/07 04:53:49;;;;;;;4.38;3.97;;;;;;;;;;5116903;28;20068;-78
2021/09/07 04:56:15;;;;;;;4.78;4.30;;;;;;;;;;5115683;28;20035;-77
2021/09/07 04:58:41;;;;;;;5.00;4.60;;;;;;;;;;5116895;28;20027;-76
2021/09/07 05:01:07;;;;;;;7.63;4.60;;;;;;;;;;5098518;28;20403;-77
2021/09/07 05:03:32;;;;;;;5.40;4.20;;;;;;;;;;5116753;28;20019;-77
2021/09/07 05:05:58;;;;;;;5.15;4.65;;;;;;;;;;5116674;28;20031;-76
2021/09/07 05:08:24;;;;;;;7.35;6.30;;;;;;;;;;5116717;28;20026;-76
2021/09/07 05:10:50;;;;;;;5.20;4.65;;;;;;;;;;5116664;28;20023;-76
2021/09/07 05:13:15;;;;;;;5.32;4.80;;;;;;;;;;5116642;27;20042;-77
2021/09/07 05:15:41;;;;;;;5.50;4.10;;;;;;;;;;5116684;28;20475;-77
2021/09/07 05:18:07;;;;;;;5.38;4.88;;;;;;;;;;5116388;28;20047;-78
2021/09/07 05:20:33;;;;;;;5.30;4.68;;;;;;;;;;5115183;28;20080;-78
2021/09/07 05:22:58;;;;;;;4.93;4.47;;;;;;;;;;5116426;28;20023;-78
2021/09/07 05:25:26;;;;;;;5.95;4.05;;;;;;;;;;5116458;28;20051;-78
2021/09/07 05:27:52;;;;;;;7.75;4.20;;;;;;;;;;5116378;28;20028;-78
2021/09/07 05:30:18;;;;;;;6.15;4.57;;;;;;;;;;5116240;28;20496;-79
2021/09/07 05:32:43;;;;;;;4.65;4.13;;;;;;;;;;5116194;28;20020;-77
2021/09/07 05:35:10;;;;;;;8.32;4.40;;;;;;;;;;5116290;28;20023;-79
2021/09/07 05:37:39;;;;;;;6.38;4.85;;;;;;;;;;5116186;28;20022;-78
2021/09/07 05:40:10;;;;;;;4.38;3.88;;;;;;;;;;5116192;27;20487;-78
2021/09/07 05:42:38;;;;;;;4.82;2.70;;;;;;;;;;5116013;28;20421;-78
2021/09/07 05:45:04;;;;;;;4.97;4.57;;;;;;;;;;5116058;28;20058;-78
2021/09/07 05:47:30;;;;;;;9.43;3.63;;;;;;;;;;5116204;28;20486;-79
2021/09/07 05:49:55;;;;;;;7.60;5.05;;;;;;;;;;5115771;28;20027;-78
2021/09/07 05:52:21;;;;;;;7.15;4.38;;;;;;;;;;5115949;28;20036;-79
2021/09/07 05:54:47;;;;;;;6.00;4.80;;;;;;;;;;5116130;28;20031;-79
2021/09/07 05:57:12;;;;;;;4.60;1.75;;;;;;;;;;5114436;28;20038;-79
2021/09/07 05:59:38;;;;;;;4.30;3.90;;;;;;;;;;5115852;28;20028;-78
2021/09/07 06:02:04;;;;;;;6.63;4.40;;;;;;;;;;5115714;28;20019;-79
2021/09/07 06:04:29;;;;;;;8.93;3.40;;;;;;;;;;5115829;28;20023;-83
2021/09/07 06:06:55;;;;;;;4.00;3.30;;;;;;;;;;5115553;28;20046;-79
2021/09/07 06:09:21;;;;;;;4.88;2.65;;;;;;;;;;5115764;28;20030;-78
2021/09/07 06:11:46;;;;;;;5.63;4.78;;;;;;;;;;5113712;28;20089;-79
2021/09/07 06:14:12;;;;;;;7.72;4.35;;;;;;;;;;5115341;28;20078;-78
2021/09/07 06:16:38;;;;;;;3.95;1.60;;;;;;;;;;5115307;28;20372;-79
2021/09/07 06:19:03;;;;;;;5.90;2.38;;;;;;;;;;5115088;28;20377;-79
2021/09/07 06:21:29;;;;;;;8.65;1.55;;;;;;;;;;5115259;28;20425;-79
2021/09/07 06:23:55;;;;;;;8.00;3.78;;;;;;;;;;5113855;28;20031;-79
2021/09/07 06:26:21;;;;;;;11.38;5.38;;;;;;;;;;5113855;28;20035;-79
2021/09/07 06:28:46;;;;;;;15.57;7.00;;;;;;;;;;5115083;28;20046;-79
2021/09/07 06:31:12;;;;;;;22.42;8.55;;;;;;;;;;5115030;28;20023;-79
2021/09/07 06:33:38;;;;;;;7.72;4.53;;;;;;;;;;5114912;28;20084;-80
2021/09/07 06:36:04;;;;;;;4.55;3.75;;;;;;;;;;5114999;28;20079;-78
2021/09/07 06:38:29;;;;;;;5.15;3.35;;;;;;;;;;5114966;28;20028;-79
2021/09/07 06:40:55;;;;;;;8.20;3.53;;;;;;;;;;5114904;27;20476;-79
2021/09/07 06:43:21;;;;;;;4.80;3.17;;;;;;;;;;5114882;28;20024;-78
2021/09/07 06:45:46;;;;;;;4.40;3.63;;;;;;;;;;5114965;28;20050;-79
2021/09/07 06:48:13;;;;;;;6.63;3.28;;;;;;;;;;5114833;28;20031;-79
2021/09/07 06:50:39;;;;;;;6.35;3.25;;;;;;;;;;5114637;28;20032;-79
2021/09/07 06:53:05;;;;;;;6.78;2.53;;;;;;;;;;5114683;28;20081;-78
2021/09/07 06:55:30;;;;;;;4.93;2.83;;;;;;;;;;5114656;28;20019;-78
2021/09/07 06:57:57;;;;;;;5.40;3.75;;;;;;;;;;5114923;28;20031;-78
2021/09/07 07:00:23;;;;;;;5.53;1.25;;;;;;;;;;5114648;28;20417;-78
2021/09/07 07:02:49;;;;;;;3.03;2.25;;;;;;;;;;5114639;28;20019;-79
2021/09/07 07:05:15;;;;;;;4.38;3.67;;;;;;;;;;5115091;28;20387;-79
2021/09/07 07:07:41;;;;;;;4.13;3.17;;;;;;;;;;5114540;28;20019;-76
2021/09/07 07:10:06;;;;;;;4.32;2.72;;;;;;;;;;5114183;28;20471;-76
2021/09/07 07:12:32;;;;;;;8.25;2.72;;;;;;;;;;5113235;28;20078;-76
2021/09/07 07:14:58;;;;;;;7.20;3.25;;;;;;;;;;5114303;28;20471;-76
2021/09/07 07:17:23;;;;;;;5.10;3.20;;;;;;;;;;5112809;28;20104;-74
2021/09/07 07:19:51;;;;;;;5.72;4.15;;;;;;;;;;5114473;28;20020;-74
2021/09/07 07:22:16;;;;;;;4.93;2.08;;;;;;;;;;5114135;28;20027;-75
2021/09/07 07:24:42;;;;;;;6.55;3.10;;;;;;;;;;5113317;28;20027;-75
2021/09/07 07:27:07;;;;;;;3.88;2.08;;;;;;;;;;5114145;28;20098;-75
2021/09/07 07:29:33;;;;;;;5.30;2.30;;;;;;;;;;5112959;28;20019;-75
2021/09/07 07:32:00;;;;;;;7.18;2.47;;;;;;;;;;5112810;28;20038;-74
2021/09/07 07:34:26;;;;;;;8.25;2.05;;;;;;;;;;5097712;28;20024;-76
2021/09/07 07:36:55;;;;;;;8.05;2.25;;;;;;;;;;5116397;28;20109;-75
2021/09/07 07:39:24;;;;;;;4.90;2.47;;;;;;;;;;5113245;28;20073;-75
2021/09/07 07:41:50;;;;;;;4.50;1.50;;;;;;;;;;5116464;28;20464;-75
2021/09/07 07:44:16;;;;;;;6.43;3.17;;;;;;;;;;5118295;28;20077;-75
2021/09/07 07:46:42;;;;;;;4.43;3.60;;;;;;;;;;5115368;28;20031;-75
2021/09/07 07:49:07;;;;;;;4.93;3.47;;;;;;;;;;5113551;28;20027;-75
2021/09/07 07:51:33;;;;;;;6.00;5.32;;;;;;;;;;5114497;28;20031;-76
2021/09/07 07:53:59;;;;;;;7.20;2.50;;;;;;;;;;5114246;28;20075;-75
2021/09/07 07:56:24;;;;;;;4.78;2.10;;;;;;;;;;5115303;28;20051;-74
2021/09/07 07:58:50;;;;;;;9.55;2.13;;;;;;;;;;5113081;28;20028;-74
2021/09/07 08:01:15;;;;;;;7.25;2.00;;;;;;;;;;5114590;28;20114;-78
2021/09/07 08:03:46;;;;;;;4.18;2.63;;;;;;;;;;5114988;28;20468;-75
2021/09/07 08:06:12;;;;;;;5.38;3.45;;;;;;;;;;5113904;28;20036;-74
2021/09/07 08:08:38;;;;;;;3.63;1.55;;;;;;;;;;5113914;28;20532;-74
2021/09/07 08:11:03;;;;;;;4.82;3.63;;;;;;;;;;5115419;28;20036;-75
2021/09/07 08:13:29;;;;;;;3.42;2.47;;;;;;;;;;5114894;28;20059;-74
2021/09/07 08:15:55;;;;;;;3.65;2.20;;;;;;;;;;5119434;28;20015;-77
2021/09/07 08:18:20;;;;;;;5.45;3.05;;;;;;;;;;5115791;28;20059;-74
2021/09/07 08:20:48;;;;;;;5.45;3.03;;;;;;;;;;5113850;28;20028;-76
2021/09/07 08:23:14;;;;;;;6.68;2.83;;;;;;;;;;5115496;28;20034;-77
2021/09/07 08:25:39;;;;;;;4.45;2.47;;;;;;;;;;5114572;28;20111;-77
2021/09/07 08:28:05;;;;;;;3.60;1.70;;;;;;;;;;5114611;28;20365;-77
2021/09/07 08:30:31;;;;;;;5.15;2.80;;;;;;;;;;5113783;28;20032;-78
2021/09/07 08:32:57;;;;;;;5.25;2.60;;;;;;;;;;5113925;28;20036;-76
2021/09/07 08:35:23;;;;;;;10.52;1.73;;;;;;;;;;5115257;28;20343;-78
2021/09/07 08:37:49;;;;;;;4.90;3.40;;;;;;;;;;5117863;28;20035;-78
2021/09/07 08:40:14;;;;;;;4.10;1.80;;;;;;;;;;5117929;28;20480;-80
2021/09/07 08:42:40;;;;;;;5.88;2.83;;;;;;;;;;5116782;28;20020;-79
2021/09/07 08:45:09;;;;;;;6.28;2.03;;;;;;;;;;5123132;28;20081;-79
2021/09/07 08:47:35;;;;;;;6.00;2.72;;;;;;;;;;5125188;28;20099;-79
2021/09/07 08:50:02;;;;;;;5.57;3.13;;;;;;;;;;5120413;28;20059;-79
2021/09/07 08:52:28;;;;;;;5.38;2.60;;;;;;;;;;5120687;28;20089;-77
2021/09/07 08:54:54;;;;;;;6.85;3.03;;;;;;;;;;5117546;28;20528;-77
2021/09/07 08:57:20;;;;;;;7.85;2.70;;;;;;;;;;5119257;28;20031;-76
2021/09/07 08:59:58;;;;;;;5.53;1.27;;;;;;;;;;5120646;28;20024;-78
2021/09/07 09:02:26;;;;;;;4.20;1.58;;;;;;;;;;5117333;28;20389;-77
2021/09/07 09:04:52;;;;;;;3.75;2.25;;;;;;;;;;5120821;28;20057;-80
2021/09/07 09:07:18;;;;;;;4.07;0.75;;;;;;;;;;5122278;28;20406;-79
2021/09/07 09:09:45;;;;;;;8.93;2.85;;;;;;;;;;5120565;28;20030;-77
2021/09/07 09:12:11;;;;;;;6.75;2.83;;;;;;;;;;5118742;28;20027;-78
2021/09/07 09:14:39;;;;;;;6.93;2.45;;;;;;;;;;5122028;28;20065;-77
2021/09/07 09:17:17;;;;;;;7.35;2.72;;;;;;;;;;5121557;28;20092;-79
2021/09/07 09:20:08;;;;;;;6.63;2.08;;;;;;;;;;5123574;27;20055;-78
2021/09/07 09:22:53;;;;;;;5.75;3.10;;;;;;;;;;5123085;28;20051;-77
2021/09/07 09:25:25;;;;;;;11.75;3.08;;;;;;;;;;5119964;28;20464;-78
2021/09/07 09:28:16;;;;;;;5.13;3.13;;;;;;;;;;5118659;28;20035;-78
2021/09/07 09:30:54;;;;;;;8.00;3.53;;;;;;;;;;5114969;28;20032;-78
2021/09/07 09:33:25;;;;;;;6.28;2.25;;;;;;;;;;5116552;28;20080;-78
2021/09/07 09:36:05;;;;;;;6.35;5.07;;;;;;;;;;5118210;28;20028;-77
2021/09/07 09:38:34;;;;;;;4.65;3.05;;;;;;;;;;5109201;28;20023;-77
2021/09/07 09:41:06;;;;;;;8.80;3.05;;;;;;;;;;5121647;28;20038;-77
2021/09/07 09:43:46;;;;;;;4.68;2.28;;;;;;;;;;5122047;28;20475;-78
2021/09/07 09:46:28;;;;;;;7.25;3.15;;;;;;;;;;5119550;28;20080;-79
2021/09/07 09:49:12;;;;;;;5.03;3.13;;;;;;;;;;5115767;28;20496;-78
2021/09/07 09:51:40;;;;;;;6.63;2.47;;;;;;;;;;5121155;28;20031;-78
2021/09/07 09:54:07;;;;;;;7.30;2.45;;;;;;;;;;5120897;28;20026;-78
2021/09/07 09:56:33;;;;;;;6.97;3.17;;;;;;;;;;5121268;28;20066;-78
2021/09/07 09:59:02;;;;;;;7.05;3.13;;;;;;;;;;5120576;28;20015;-78
2021/09/07 10:01:28;;;;;;;7.65;3.05;;;;;;;;;;5118352;28;20475;-78
2021/09/07 10:04:00;;;;;;;7.72;3.22;;;;;;;;;;5118148;28;20038;-78
2021/09/07 10:06:25;;;;;;;5.57;1.80;;;;;;;;;;5120276;28;20020;-78
2021/09/07 10:08:51;;;;;;;4.85;2.65;;;;;;;;;;5119436;27;20019;-76
2021/09/07 10:11:22;;;;;;;5.18;1.88;;;;;;;;;;5121458;28;20036;-78
2021/09/07 10:13:54;;;;;;;6.03;2.70;;;;;;;;;;5119974;28;20495;-76
2021/09/07 10:20:45;;;;;;;7.00;3.25;;;;;;;;;;5057745;28;20033;-77
2021/09/07 10:23:25;;;;;;;5.25;1.60;;;;;;;;;;5049753;28;20071;-78
2021/09/07 10:25:56;;;;;;;4.05;1.23;;;;;;;;;;5058157;28;20120;-76
2021/09/07 10:28:28;;;;;;;4.78;2.05;;;;;;;;;;5052802;28;20056;-77
2021/09/07 10:31:11;;;;;;;7.40;1.33;;;;;;;;;;5053371;28;20044;-77
2021/09/07 10:33:45;;;;;;;4.05;2.65;;;;;;;;;;5039657;28;20032;-77
2021/09/07 10:36:23;;;;;;;6.40;1.70;;;;;;;;;;5055609;28;20053;-77
2021/09/07 10:38:53;;;;;;;8.95;2.75;;;;;;;;;;5055190;28;20073;-77
2021/09/07 10:41:34;;;;;;;6.47;1.77;;;;;;;;;;5055270;28;20549;-77
2021/09/07 10:44:28;;;;;;;4.60;1.45;;;;;;;;;;5055295;28;20043;-78
2021/09/07 10:46:55;;;;;;;8.98;2.88;;;;;;;;;;5055387;28;20151;-77
2021/09/07 10:49:28;;;;;;;4.65;1.50;;;;;;;;;;5063513;28;20025;-77
2021/09/07 10:52:13;;;;;;;3.95;1.40;;;;;;;;;;5117784;28;20064;-78
2021/09/07 10:54:55;;;;;;;6.05;3.65;;;;;;;;;;5117550;28;20032;-78
2021/09/07 10:57:42;;;;;;;3.75;2.83;;;;;;;;;;5114693;28;20023;-78
2021/09/07 11:00:14;;;;;;;6.45;1.65;;;;;;;;;;5117721;28;20023;-79
2021/09/07 11:02:49;;;;;;;8.35;1.80;;;;;;;;;;5117993;28;20024;-77
2021/09/07 11:05:23;;;;;;;5.95;3.20;;;;;;;;;;5117846;28;20024;-77
2021/09/07 11:08:18;;;;;;;4.45;2.08;;;;;;;;;;5115279;28;20093;-79
2021/09/07 11:10:54;;;;;;;4.78;3.05;;;;;;;;;;5120141;28;20126;-77
2021/09/07 11:13:30;;;;;;;6.55;4.25;;;;;;;;;;5117166;28;20399;-80
2021/09/07 11:16:01;;;;;;;5.28;1.80;;;;;;;;;;5117673;28;20464;-76
2021/09/07 11:18:29;;;;;;;5.85;0.60;;;;;;;;;;5114427;28;20456;-76
2021/09/07 11:21:06;;;;;;;5.22;1.85;;;;;;;;;;5118161;28;20023;-76
2021/09/07 11:23:35;;;;;;;6.05;2.95;;;;;;;;;;5117524;28;20047;-77
2021/09/07 11:26:13;;;;;;;5.00;1.00;;;;;;;;;;5118677;28;20076;-79
2021/09/07 11:29:03;;;;;;;4.97;1.25;;;;;;;;;;5118116;28;20079;-74
2021/09/07 11:31:29;;;;;;;6.05;1.58;;;;;;;;;;5116308;28;20032;-76
2021/09/07 11:33:54;;;;;;;4.78;1.70;;;;;;;;;;5114282;28;20027;-76
2021/09/07 11:36:20;;;;;;;5.82;1.60;;;;;;;;;;5114010;28;20495;-76
2021/09/07 11:38:49;;;;;;;5.57;1.35;;;;;;;;;;5114099;28;20384;-76
2021/09/07 11:41:20;;;;;;;4.50;1.67;;;;;;;;;;5114625;28;20035;-76
2021/09/07 11:43:50;;;;;;;4.78;3.25;;;;;;;;;;5114057;28;20057;-77
2021/09/07 11:46:30;;;;;;;4.38;3.15;;;;;;;;;;5121724;28;20098;-78
2021/09/07 11:49:08;;;;;;;5.88;2.20;;;;;;;;;;5114156;28;20080;-78
2021/09/07 11:51:39;;;;;;;5.13;1.55;;;;;;;;;;5113991;28;20387;-78
2021/09/07 11:54:07;;;;;;;5.97;4.10;;;;;;;;;;5115214;28;20016;-78
2021/09/07 11:56:35;;;;;;;7.10;1.92;;;;;;;;;;5118176;28;20092;-79
2021/09/07 11:59:18;;;;;;;4.82;1.77;;;;;;;;;;5129504;28;20020;-79
2021/09/07 12:01:53;;;;;;;8.30;1.95;;;;;;;;;;5136043;28;20022;-79
2021/09/07 12:04:23;;;;;;;5.32;1.75;;;;;;;;;;5125842;28;20379;-79
2021/09/07 12:06:53;;;;;;;4.68;2.00;;;;;;;;;;5118739;28;20023;-79
2021/09/07 12:09:20;;;;;;;5.00;1.58;;;;;;;;;;5117909;28;20106;-78
2021/09/07 12:11:49;;;;;;;5.63;1.67;;;;;;;;;;5117133;28;20483;-79
2021/09/07 12:14:21;;;;;;;3.50;1.42;;;;;;;;;;5121872;28;20080;-79
2021/09/07 12:17:01;;;;;;;2.92;1.35;;;;;;;;;;5119384;28;20016;-80
2021/09/07 12:19:50;;;;;;;3.00;1.15;;;;;;;;;;5121525;28;20417;-78
2021/09/07 12:22:37;;;;;;;4.43;1.90;;;;;;;;;;5124356;28;20038;-79
2021/09/07 12:25:07;;;;;;;5.60;2.40;;;;;;;;;;5118686;28;20023;-79
2021/09/07 12:27:49;;;;;;;5.90;1.80;;;;;;;;;;5125064;28;20023;-79
2021/09/07 12:30:24;;;;;;;9.07;3.00;;;;;;;;;;5120923;27;20034;-83
2021/09/07 12:32:57;;;;;;;5.03;2.53;;;;;;;;;;5119573;28;20027;-79
2021/09/07 12:35:39;;;;;;;7.45;3.55;;;;;;;;;;5117792;28;20459;-81
2021/09/07 12:38:16;;;;;;;5.95;2.80;;;;;;;;;;5127646;28;20024;-80
2021/09/07 12:40:47;;;;;;;4.18;2.97;;;;;;;;;;5120858;28;20024;-80
2021/09/07 12:43:25;;;;;;;5.53;2.85;;;;;;;;;;5124157;28;20476;-82
2021/09/07 12:46:00;;;;;;;7.07;2.30;;;;;;;;;;5118302;28;20057;-80
2021/09/07 12:48:29;;;;;;;6.85;3.53;;;;;;;;;;5120701;27;20028;-82
2021/09/07 12:50:57;;;;;;;8.95;2.08;;;;;;;;;;5117887;28;20425;-78
2021/09/07 12:53:24;;;;;;;5.57;3.15;;;;;;;;;;5117807;28;20032;-79
2021/09/07 12:55:51;;;;;;;7.38;3.17;;;;;;;;;;5117631;28;20019;-79
2021/09/07 12:58:17;;;;;;;8.02;3.53;;;;;;;;;;5117897;28;20080;-81
2021/09/07 13:00:45;;;;;;;10.05;4.05;;;;;;;;;;5117663;28;20527;-79
2021/09/07 13:03:12;;;;;;;8.75;3.40;;;;;;;;;;5116046;28;20027;-79
2021/09/07 13:05:39;;;;;;;5.82;4.35;;;;;;;;;;5119841;28;20027;-79
2021/09/07 13:08:05;;;;;;;6.05;3.47;;;;;;;;;;5123042;28;20038;-79
2021/09/07 13:10:33;;;;;;;6.68;3.75;;;;;;;;;;5118720;28;20051;-79
2021/09/07 13:12:58;;;;;;;6.85;3.92;;;;;;;;;;5118660;28;20068;-79
2021/09/07 13:15:24;;;;;;;3.63;2.78;;;;;;;;;;5119033;28;20094;-79
2021/09/07 13:17:49;;;;;;;6.28;2.28;;;;;;;;;;5117408;28;20047;-78
2021/09/07 13:20:15;;;;;;;5.55;4.35;;;;;;;;;;5117430;28;20035;-79
2021/09/07 13:22:41;;;;;;;4.63;2.83;;;;;;;;;;5116292;27;20027;-78
2021/09/07 13:25:07;;;;;;;5.63;1.65;;;;;;;;;;5116981;28;20375;-79
2021/09/07 13:27:33;;;;;;;5.25;2.70;;;;;;;;;;5117337;28;20083;-80
2021/09/07 13:29:58;;;;;;;6.32;3.13;;;;;;;;;;5115775;28;20111;-79
2021/09/07 13:32:24;;;;;;;7.13;2.42;;;;;;;;;;5116935;27;20360;-79
2021/09/07 13:34:50;;;;;;;8.60;3.47;;;;;;;;;;5115829;28;20028;-79
2021/09/07 13:37:15;;;;;;;6.75;2.55;;;;;;;;;;5117351;28;20348;-79
2021/09/07 13:39:41;;;;;;;5.85;3.60;;;;;;;;;;5115632;28;20034;-78
2021/09/07 13:42:07;;;;;;;7.07;3.72;;;;;;;;;;5116575;28;20023;-79
2021/09/07 13:44:32;;;;;;;11.50;2.75;;;;;;;;;;5101101;28;20034;-79
2021/09/07 13:46:58;;;;;;;10.60;2.45;;;;;;;;;;5117549;28;20027;-79
2021/09/07 13:49:23;;;;;;;11.45;3.80;;;;;;;;;;5116593;28;20023;-80
2021/09/07 13:51:50;;;;;;;8.65;3.72;;;;;;;;;;5116972;28;20024;-78
2021/09/07 13:54:16;;;;;;;4.15;3.03;;;;;;;;;;5117949;28;20073;-80
2021/09/07 13:56:41;;;;;;;8.23;3.42;;;;;;;;;;5115557;28;20027;-81
2021/09/07 13:59:07;;;;;;;5.07;3.22;;;;;;;;;;5115174;28;20020;-80
2021/09/07 14:01:33;;;;;;;9.65;4.07;;;;;;;;;;5116619;28;20486;-81
2021/09/07 14:03:58;;;;;;;3.70;1.88;;;;;;;;;;5116416;28;20489;-79
2021/09/07 14:06:24;;;;;;;6.57;1.88;;;;;;;;;;5116921;28;20368;-79
2021/09/07 14:08:50;;;;;;;7.68;4.50;;;;;;;;;;5117379;28;20520;-78
2021/09/07 14:11:16;;;;;;;6.22;2.65;;;;;;;;;;5116348;28;20024;-79
2021/09/07 14:13:42;;;;;;;5.57;3.90;;;;;;;;;;5116705;28;20084;-77
2021/09/07 14:16:14;;;;;;;5.40;2.67;;;;;;;;;;5116870;28;20015;-76
2021/09/07 14:18:39;;;;;;;5.63;3.33;;;;;;;;;;5126766;28;20096;-79
2021/09/07 14:21:05;;;;;;;5.80;2.88;;;;;;;;;;5100611;28;20062;-80
2021/09/07 14:23:31;;;;;;;4.32;1.85;;;;;;;;;;5114163;28;20395;-79
2021/09/07 14:25:57;;;;;;;5.43;2.97;;;;;;;;;;5115567;28;20077;-79
2021/09/07 14:28:22;;;;;;;4.82;3.53;;;;;;;;;;5115220;28;20031;-79
2021/09/07 14:30:49;;;;;;;4.38;2.17;;;;;;;;;;5114334;28;20387;-79
2021/09/07 14:33:14;;;;;;;6.28;3.67;;;;;;;;;;5115446;28;20051;-79
2021/09/07 14:35:40;;;;;;;5.82;3.47;;;;;;;;;;5115957;28;20072;-78
2021/09/07 14:38:06;;;;;;;4.60;2.63;;;;;;;;;;5115054;28;20031;-78
2021/09/07 14:40:32;;;;;;;5.43;2.45;;;;;;;;;;5115141;27;20027;-79
2021/09/07 14:42:57;;;;;;;9.70;3.50;;;;;;;;;;5115119;28;20106;-79
2021/09/07 14:45:24;;;;;;;5.90;2.78;;;;;;;;;;5114974;28;20069;-80
2021/09/07 14:47:51;;;;;;;4.78;3.28;;;;;;;;;;5114906;28;20020;-80
2021/09/07 14:50:18;;;;;;;4.75;2.30;;;;;;;;;;5114864;28;20383;-79
2021/09/07 14:52:44;;;;;;;4.70;3.55;;;;;;;;;;5113500;28;20065;-80